createdAt,value
2018-09-28T00:00:02.115Z,17.23
2018-09-28T00:01:07.681Z,17.60
2018-09-28T00:02:13.137Z,16.13
2018-09-28T00:03:18.689Z,16.33
2018-09-28T00:04:24.320Z,17.40
2018-09-28T00:05:29.732Z,17.30
2018-09-28T00:06:35.161Z,18.13
2018-09-28T00:07:40.663Z,17.20
2018-09-28T00:08:46.101Z,18.50
2018-09-28T00:09:51.825Z,19.10
2018-09-28T00:10:57.232Z,19.70
2018-09-28T00:12:02.801Z,19.50
2018-09-28T00:13:08.543Z,22.30
2018-09-28T00:14:14.004Z,21.93
2018-09-28T00:15:19.497Z,21.60
2018-09-28T00:16:25.033Z,20.70
2018-09-28T00:17:30.526Z,19.63
2018-09-28T00:18:35.954Z,20.00
2018-09-28T00:19:41.429Z,19.97
2018-09-28T00:20:46.881Z,20.93
2018-09-28T00:21:52.865Z,21.23
2018-09-28T00:22:58.320Z,20.97
2018-09-28T00:24:03.761Z,21.07
2018-09-28T00:25:09.228Z,22.00
2018-09-28T00:26:14.687Z,22.50
2018-09-28T00:27:20.197Z,20.97
2018-09-28T00:28:25.697Z,19.90
2018-09-28T00:29:31.482Z,21.93
2018-09-28T00:30:36.892Z,22.27
2018-09-28T00:31:42.325Z,21.07
2018-09-28T00:32:47.745Z,20.93
2018-09-28T00:33:53.336Z,20.67
2018-09-28T00:34:58.833Z,22.30
2018-09-28T00:36:04.285Z,22.27
2018-09-28T00:37:09.764Z,22.23
2018-09-28T00:38:15.573Z,22.07
2018-09-28T00:39:21.117Z,22.53
2018-09-28T00:40:26.638Z,23.37
2018-09-28T00:41:32.056Z,21.70
2018-09-28T00:42:37.552Z,22.20
2018-09-28T00:43:43.132Z,23.70
2018-09-28T00:44:48.629Z,22.33
2018-09-28T00:45:54.053Z,23.50
2018-09-28T00:46:59.445Z,23.37
2018-09-28T00:48:04.960Z,23.77
2018-09-28T00:49:10.433Z,22.60
2018-09-28T00:50:15.921Z,24.00
2018-09-28T00:51:21.380Z,23.17
2018-09-28T00:52:26.996Z,25.00
2018-09-28T00:53:32.428Z,23.47
2018-09-28T00:54:37.949Z,25.83
2018-09-28T00:55:43.380Z,25.13
2018-09-28T00:56:48.929Z,26.17
2018-09-28T00:57:54.309Z,24.20
2018-09-28T00:58:59.806Z,24.73
2018-09-28T01:00:05.436Z,28.07
2018-09-28T01:01:10.884Z,27.60
2018-09-28T01:02:16.546Z,24.57
2018-09-28T01:03:21.980Z,26.80
2018-09-28T01:04:27.376Z,28.07
2018-09-28T01:05:32.828Z,24.97
2018-09-28T01:06:38.265Z,26.10
2018-09-28T01:07:43.725Z,28.60
2018-09-28T01:08:49.222Z,25.93
2018-09-28T01:09:54.706Z,25.73
2018-09-28T01:11:02.324Z,27.03
2018-09-28T01:12:07.781Z,27.23
2018-09-28T01:13:13.280Z,27.43
2018-09-28T01:14:19.062Z,27.57
2018-09-28T01:15:24.536Z,27.73
2018-09-28T01:16:29.982Z,25.93
2018-09-28T01:17:35.428Z,29.07
2018-09-28T01:18:40.956Z,27.30
2018-09-28T01:19:46.478Z,28.10
2018-09-28T01:20:52.048Z,27.37
2018-09-28T01:21:57.480Z,28.23
2018-09-28T01:23:02.958Z,27.43
2018-09-28T01:24:08.560Z,26.60
2018-09-28T01:25:14.014Z,27.97
2018-09-28T01:26:19.440Z,26.03
2018-09-28T01:27:24.873Z,29.00
2018-09-28T01:28:30.369Z,28.30
2018-09-28T01:29:35.818Z,28.23
2018-09-28T01:30:41.232Z,28.37
2018-09-28T01:31:46.782Z,29.67
2018-09-28T01:32:52.298Z,30.17
2018-09-28T01:33:58.076Z,27.10
2018-09-28T01:35:03.505Z,26.83
2018-09-28T01:36:09.038Z,27.93
2018-09-28T01:37:14.489Z,29.40
2018-09-28T01:38:19.962Z,29.17
2018-09-28T01:39:25.396Z,29.00
2018-09-28T01:40:30.837Z,29.27
2018-09-28T01:41:36.377Z,27.90
2018-09-28T01:42:41.944Z,29.07
2018-09-28T01:43:47.450Z,30.87
2018-09-28T01:44:52.948Z,28.53
2018-09-28T01:45:58.389Z,28.23
2018-09-28T01:47:03.935Z,30.70
2018-09-28T01:48:09.432Z,30.10
2018-09-28T01:49:14.913Z,30.30
2018-09-28T01:50:20.356Z,31.90
2018-09-28T01:51:25.763Z,30.50
2018-09-28T01:52:31.513Z,30.10
2018-09-28T01:53:36.909Z,28.90
2018-09-28T01:54:42.460Z,29.00
2018-09-28T01:55:47.913Z,32.53
2018-09-28T01:56:53.372Z,29.80
2018-09-28T01:57:58.772Z,30.13
2018-09-28T01:59:04.306Z,31.93
2018-09-28T02:00:09.989Z,28.93
2018-09-28T02:01:15.448Z,29.70
2018-09-28T02:02:20.930Z,29.40
2018-09-28T02:03:26.434Z,31.47
2018-09-28T02:04:31.858Z,31.20
2018-09-28T02:05:37.410Z,31.43
2018-09-28T02:06:42.824Z,32.40
2018-09-28T02:07:48.220Z,30.30
2018-09-28T02:08:53.681Z,28.80
2018-09-28T02:09:59.146Z,30.50
2018-09-28T02:11:04.597Z,30.77
2018-09-28T02:12:10.062Z,30.57
2018-09-28T02:13:15.526Z,29.87
2018-09-28T02:14:21.195Z,30.40
2018-09-28T02:15:26.602Z,28.33
2018-09-28T02:16:32.048Z,29.53
2018-09-28T02:17:37.549Z,32.50
2018-09-28T02:18:42.952Z,29.30
2018-09-28T02:19:48.534Z,28.70
2018-09-28T02:20:54.095Z,29.23
2018-09-28T02:21:59.523Z,29.07
2018-09-28T02:23:05.152Z,29.03
2018-09-28T02:24:10.569Z,30.10
2018-09-28T02:25:16.021Z,29.20
2018-09-28T02:26:21.445Z,29.87
2018-09-28T02:27:26.921Z,27.77
2018-09-28T02:28:32.670Z,28.73
2018-09-28T02:29:38.140Z,30.20
2018-09-28T02:30:43.597Z,27.80
2018-09-28T02:31:48.993Z,28.93
2018-09-28T02:32:54.461Z,29.60
2018-09-28T02:34:00.479Z,30.37
2018-09-28T02:35:06.468Z,30.13
2018-09-28T02:36:11.925Z,29.63
2018-09-28T02:37:17.317Z,30.47
2018-09-28T02:38:22.752Z,29.60
2018-09-28T02:39:28.257Z,28.97
2018-09-28T02:40:33.745Z,28.97
2018-09-28T02:41:39.233Z,29.27
2018-09-28T02:42:45.013Z,29.07
2018-09-28T02:43:50.480Z,29.30
2018-09-28T02:44:55.936Z,28.07
2018-09-28T02:46:01.385Z,29.83
2018-09-28T02:47:06.837Z,27.10
2018-09-28T02:48:12.317Z,28.50
2018-09-28T02:49:17.816Z,27.97
2018-09-28T02:50:23.298Z,29.33
2018-09-28T02:51:28.895Z,27.90
2018-09-28T02:52:34.362Z,27.47
2018-09-28T02:53:39.816Z,26.27
2018-09-28T02:54:45.206Z,27.30
2018-09-28T02:55:50.801Z,28.33
2018-09-28T02:56:56.358Z,27.30
2018-09-28T02:58:01.748Z,25.87
2018-09-28T02:59:07.636Z,24.80
2018-09-28T03:00:13.073Z,26.70
2018-09-28T03:01:18.691Z,25.40
2018-09-28T03:02:24.200Z,27.00
2018-09-28T03:03:29.801Z,25.80
2018-09-28T03:04:35.233Z,27.63
2018-09-28T03:05:40.945Z,25.13
2018-09-28T03:06:46.719Z,24.60
2018-09-28T03:07:52.337Z,23.90
2018-09-28T03:08:57.904Z,23.10
2018-09-28T03:10:03.384Z,22.63
2018-09-28T03:11:08.865Z,25.07
2018-09-28T03:12:14.562Z,25.20
2018-09-28T03:13:20.157Z,24.73
2018-09-28T03:14:25.701Z,23.00
2018-09-28T03:15:31.147Z,23.00
2018-09-28T03:16:36.635Z,23.70
2018-09-28T03:17:42.169Z,20.50
2018-09-28T03:18:47.582Z,19.87
2018-09-28T03:19:53.174Z,19.90
2018-09-28T03:20:58.712Z,20.83
2018-09-28T03:22:04.182Z,18.63
2018-09-28T03:23:09.599Z,20.20
2018-09-28T03:24:15.357Z,18.30
2018-09-28T03:25:21.098Z,15.20
2018-09-28T03:26:26.537Z,15.97
2018-09-28T03:27:32.134Z,16.80
2018-09-28T03:28:37.585Z,14.83
2018-09-28T03:29:43.077Z,13.70
2018-09-28T03:30:48.573Z,14.63
2018-09-28T03:31:54.099Z,13.53
2018-09-28T03:32:59.568Z,12.23
2018-09-28T03:34:05.117Z,10.60
2018-09-28T03:35:10.620Z,9.20
2018-09-28T03:36:16.169Z,8.73
2018-09-28T03:37:21.699Z,9.20
2018-09-28T03:38:27.152Z,9.60
2018-09-28T03:39:32.589Z,8.33
2018-09-28T03:40:38.547Z,8.40
2018-09-28T03:41:43.939Z,8.10
2018-09-28T03:42:49.494Z,6.77
2018-09-28T03:43:54.933Z,6.63
2018-09-28T03:45:00.449Z,7.40
2018-09-28T03:46:05.998Z,7.10
2018-09-28T03:47:11.513Z,6.47
2018-09-28T03:48:16.985Z,5.70
2018-09-28T03:49:22.454Z,5.07
2018-09-28T03:50:28.061Z,3.33
2018-09-28T03:51:33.802Z,4.37
2018-09-28T03:52:39.363Z,4.30
2018-09-28T03:53:44.798Z,3.03
2018-09-28T03:54:50.261Z,3.10
2018-09-28T03:55:56.022Z,4.07
2018-09-28T03:57:01.420Z,2.77
2018-09-28T03:58:06.918Z,3.20
2018-09-28T03:59:12.371Z,2.10
2018-09-28T04:00:17.876Z,2.33
2018-09-28T04:01:23.396Z,3.00
2018-09-28T04:02:29.167Z,2.20
2018-09-28T04:03:34.693Z,2.30
2018-09-28T04:04:40.259Z,2.53
2018-09-28T04:05:45.696Z,1.77
2018-09-28T04:06:51.364Z,2.03
2018-09-28T04:07:56.841Z,1.77
2018-09-28T04:09:02.288Z,1.70
2018-09-28T04:10:09.023Z,2.60
2018-09-28T04:11:14.441Z,1.70
2018-09-28T04:12:19.880Z,2.40
2018-09-28T04:13:25.363Z,2.17
2018-09-28T04:14:30.778Z,2.00
2018-09-28T04:15:36.210Z,2.00
2018-09-28T04:16:41.682Z,2.30
2018-09-28T04:17:47.156Z,2.37
2018-09-28T04:18:52.608Z,2.37
2018-09-28T04:19:58.045Z,2.33
2018-09-28T04:21:03.509Z,4.30
2018-09-28T04:22:09.342Z,1.60
2018-09-28T04:23:14.788Z,2.20
2018-09-28T04:24:20.566Z,1.83
2018-09-28T04:25:26.042Z,1.70
2018-09-28T04:26:31.468Z,2.40
2018-09-28T04:27:36.870Z,1.47
2018-09-28T04:28:42.374Z,2.10
2018-09-28T04:29:47.816Z,3.10
2018-09-28T04:30:53.262Z,1.97
2018-09-28T04:31:58.735Z,2.10
2018-09-28T04:33:04.165Z,2.10
2018-09-28T04:34:09.614Z,1.40
2018-09-28T04:35:15.020Z,2.03
2018-09-28T04:36:20.487Z,2.00
2018-09-28T04:37:25.953Z,1.43
2018-09-28T04:38:31.392Z,2.07
2018-09-28T04:39:36.993Z,1.60
2018-09-28T04:40:42.497Z,2.03
2018-09-28T04:41:48.247Z,1.67
2018-09-28T04:42:53.673Z,2.47
2018-09-28T04:43:59.128Z,2.30
2018-09-28T04:45:04.831Z,1.60
2018-09-28T04:46:10.313Z,1.90
2018-09-28T04:47:15.911Z,2.50
2018-09-28T04:48:21.341Z,2.00
2018-09-28T04:49:26.909Z,1.70
2018-09-28T04:50:32.363Z,1.40
2018-09-28T04:51:37.861Z,2.97
2018-09-28T04:52:43.313Z,1.83
2018-09-28T04:53:49.435Z,2.90
2018-09-28T04:54:54.990Z,1.53
2018-09-28T04:56:00.742Z,1.90
2018-09-28T04:57:06.221Z,1.50
2018-09-28T04:58:11.956Z,1.60
2018-09-28T04:59:17.365Z,1.70
2018-09-28T05:00:22.834Z,1.80
2018-09-28T05:01:28.372Z,1.47
2018-09-28T05:02:33.828Z,2.10
2018-09-28T05:03:39.373Z,2.33
2018-09-28T05:04:44.835Z,2.10
2018-09-28T05:05:50.306Z,2.43
2018-09-28T05:06:55.712Z,1.80
2018-09-28T05:08:01.172Z,2.60
2018-09-28T05:09:11.266Z,2.50
2018-09-28T05:10:16.737Z,1.80
2018-09-28T05:11:22.176Z,2.07
2018-09-28T05:12:27.673Z,2.20
2018-09-28T05:13:33.096Z,2.17
2018-09-28T05:14:38.573Z,3.00
2018-09-28T05:15:44.250Z,2.70
2018-09-28T05:16:50.008Z,2.10
2018-09-28T05:17:55.482Z,2.00
2018-09-28T05:19:00.928Z,2.37
2018-09-28T05:20:06.808Z,1.70
2018-09-28T05:21:12.319Z,1.50
2018-09-28T05:22:17.848Z,2.03
2018-09-28T05:23:23.281Z,1.67
2018-09-28T05:24:32.432Z,2.07
2018-09-28T05:25:37.847Z,2.10
2018-09-28T05:26:43.388Z,2.10
2018-09-28T05:27:48.984Z,1.87
2018-09-28T05:28:54.485Z,1.90
2018-09-28T05:29:59.968Z,2.33
2018-09-28T05:31:05.555Z,2.33
2018-09-28T05:32:11.089Z,2.27
2018-09-28T05:33:16.490Z,1.93
2018-09-28T05:34:22.172Z,1.60
2018-09-28T05:35:27.598Z,2.27
2018-09-28T05:36:33.037Z,1.80
2018-09-28T05:37:38.500Z,1.97
2018-09-28T05:38:43.996Z,2.30
2018-09-28T05:39:49.511Z,2.67
2018-09-28T05:40:54.952Z,2.00
2018-09-28T05:42:00.436Z,1.83
2018-09-28T05:43:05.834Z,2.43
2018-09-28T05:44:11.247Z,1.93
2018-09-28T05:45:16.936Z,2.30
2018-09-28T05:46:22.377Z,1.30
2018-09-28T05:47:27.801Z,2.43
2018-09-28T05:48:33.324Z,2.07
2018-09-28T05:49:38.816Z,2.00
2018-09-28T05:50:44.269Z,1.70
2018-09-28T05:51:49.741Z,2.00
2018-09-28T05:52:55.307Z,1.90
2018-09-28T05:54:00.729Z,2.20
2018-09-28T05:55:06.201Z,1.93
2018-09-28T05:56:11.974Z,1.73
2018-09-28T05:57:17.470Z,1.97
2018-09-28T05:58:28.159Z,2.20
2018-09-28T05:59:38.832Z,1.97
2018-09-28T06:00:49.442Z,1.80
2018-09-28T06:02:00.149Z,4.60
2018-09-28T06:03:12.737Z,2.30
2018-09-28T06:04:23.452Z,2.37
2018-09-28T06:05:33.524Z,1.63
2018-09-28T06:06:39.008Z,2.53
2018-09-28T06:07:44.412Z,1.93
2018-09-28T06:08:50.018Z,2.03
2018-09-28T06:09:55.613Z,2.40
2018-09-28T06:11:01.013Z,2.40
2018-09-28T06:12:06.522Z,2.10
2018-09-28T06:13:11.945Z,2.30
2018-09-28T06:14:17.532Z,1.77
2018-09-28T06:15:23.242Z,2.00
2018-09-28T06:16:28.733Z,1.97
2018-09-28T06:17:34.161Z,3.07
2018-09-28T06:18:39.700Z,3.00
2018-09-28T06:19:45.176Z,3.60
2018-09-28T06:20:50.816Z,2.33
2018-09-28T06:21:56.593Z,2.67
2018-09-28T06:23:02.127Z,2.53
2018-09-28T06:24:07.974Z,3.50
2018-09-28T06:25:13.379Z,4.30
2018-09-28T06:26:18.845Z,1.93
2018-09-28T06:27:24.344Z,2.93
2018-09-28T06:28:29.841Z,1.87
2018-09-28T06:29:35.417Z,2.43
2018-09-28T06:30:41.341Z,3.00
2018-09-28T06:31:46.784Z,2.70
2018-09-28T06:32:52.251Z,2.00
2018-09-28T06:33:57.757Z,2.10
2018-09-28T06:35:03.202Z,2.03
2018-09-28T06:36:08.717Z,2.00
2018-09-28T06:37:14.165Z,2.63
2018-09-28T06:38:19.593Z,2.33
2018-09-28T06:39:25.124Z,2.33
2018-09-28T06:40:30.588Z,2.17
2018-09-28T06:41:36.222Z,3.63
2018-09-28T06:42:41.670Z,4.00
2018-09-28T06:43:47.196Z,2.40
2018-09-28T06:44:52.705Z,2.00
2018-09-28T06:45:58.118Z,2.93
2018-09-28T06:47:03.572Z,3.87
2018-09-28T06:48:09.072Z,2.50
2018-09-28T06:49:14.478Z,2.83
2018-09-28T06:50:19.962Z,1.83
2018-09-28T06:51:25.530Z,2.60
2018-09-28T06:52:31.217Z,2.30
2018-09-28T06:53:36.632Z,3.23
2018-09-28T06:54:42.085Z,2.27
2018-09-28T06:55:47.531Z,4.03
2018-09-28T06:56:53.109Z,2.50
2018-09-28T06:57:59.032Z,1.87
2018-09-28T06:59:04.461Z,2.00
2018-09-28T07:00:10.295Z,3.03
2018-09-28T07:01:15.783Z,3.07
2018-09-28T07:02:21.416Z,2.83
2018-09-28T07:03:26.888Z,2.70
2018-09-28T07:04:33.550Z,2.30
2018-09-28T07:05:38.994Z,3.30
2018-09-28T07:06:44.408Z,2.00
2018-09-28T07:07:49.930Z,2.70
2018-09-28T07:08:55.406Z,2.93
2018-09-28T07:10:00.851Z,2.33
2018-09-28T07:11:06.576Z,2.47
2018-09-28T07:12:12.057Z,2.50
2018-09-28T07:13:17.430Z,2.37
2018-09-28T07:14:22.865Z,2.90
2018-09-28T07:15:28.484Z,3.10
2018-09-28T07:16:33.899Z,2.33
2018-09-28T07:17:39.387Z,2.30
2018-09-28T07:18:44.810Z,2.80
2018-09-28T07:19:50.342Z,2.30
2018-09-28T07:20:55.742Z,2.40
2018-09-28T07:22:01.185Z,2.60
2018-09-28T07:23:06.649Z,3.10
2018-09-28T07:24:12.168Z,3.13
2018-09-28T07:25:17.576Z,2.53
2018-09-28T07:26:23.028Z,3.00
2018-09-28T07:27:28.477Z,2.13
2018-09-28T07:28:33.960Z,2.67
2018-09-28T07:29:39.406Z,2.40
2018-09-28T07:30:44.804Z,2.50
2018-09-28T07:31:50.636Z,2.97
2018-09-28T07:32:56.328Z,2.60
2018-09-28T07:34:01.796Z,2.60
2018-09-28T07:35:07.716Z,2.73
2018-09-28T07:36:13.238Z,2.70
2018-09-28T07:37:18.621Z,2.63
2018-09-28T07:38:24.300Z,3.07
2018-09-28T07:39:30.005Z,3.43
2018-09-28T07:40:35.433Z,2.00
2018-09-28T07:41:41.047Z,2.13
2018-09-28T07:42:46.701Z,2.60
2018-09-28T07:43:52.217Z,2.30
2018-09-28T07:44:57.684Z,2.20
2018-09-28T07:46:03.089Z,2.07
2018-09-28T07:47:08.629Z,2.37
2018-09-28T07:48:14.078Z,2.23
2018-09-28T07:49:19.685Z,2.70
2018-09-28T07:50:25.065Z,3.03
2018-09-28T07:51:30.570Z,2.93
2018-09-28T07:52:36.329Z,3.00
2018-09-28T07:53:41.893Z,2.40
2018-09-28T07:54:47.445Z,2.50
2018-09-28T07:55:52.949Z,1.90
2018-09-28T07:56:58.340Z,2.30
2018-09-28T07:58:03.837Z,2.73
2018-09-28T07:59:09.381Z,2.40
2018-09-28T08:00:14.893Z,1.90
2018-09-28T08:01:20.454Z,3.60
2018-09-28T08:02:25.877Z,2.10
2018-09-28T08:03:31.289Z,1.90
2018-09-28T08:04:36.688Z,2.90
2018-09-28T08:05:42.225Z,3.20
2018-09-28T08:06:47.673Z,2.70
2018-09-28T08:07:53.241Z,2.43
2018-09-28T08:08:59.037Z,2.40
2018-09-28T08:10:05.060Z,1.60
2018-09-28T08:11:10.592Z,2.20
2018-09-28T08:12:15.997Z,3.00
2018-09-28T08:13:21.867Z,3.00
2018-09-28T08:14:27.432Z,1.70
2018-09-28T08:15:32.972Z,3.10
2018-09-28T08:16:39.359Z,2.90
2018-09-28T08:17:44.788Z,2.33
2018-09-28T08:18:50.341Z,2.20
2018-09-28T08:19:55.936Z,1.70
2018-09-28T08:21:01.380Z,1.70
2018-09-28T08:22:06.937Z,2.30
2018-09-28T08:23:12.385Z,2.53
2018-09-28T08:24:17.829Z,3.10
2018-09-28T08:25:23.325Z,2.80
2018-09-28T08:26:28.811Z,2.50
2018-09-28T08:27:34.352Z,4.53
2018-09-28T08:28:39.765Z,2.53
2018-09-28T08:29:45.229Z,2.30
2018-09-28T08:30:50.868Z,1.77
2018-09-28T08:31:56.398Z,2.03
2018-09-28T08:33:02.004Z,2.20
2018-09-28T08:34:07.555Z,2.60
2018-09-28T08:35:13.041Z,1.90
2018-09-28T08:36:18.488Z,2.03
2018-09-28T08:37:23.936Z,2.30
2018-09-28T08:38:29.427Z,2.30
2018-09-28T08:39:35.053Z,2.10
2018-09-28T08:40:40.808Z,2.73
2018-09-28T08:41:46.438Z,1.87
2018-09-28T08:42:52.006Z,2.97
2018-09-28T08:43:57.506Z,3.03
2018-09-28T08:45:03.089Z,1.90
2018-09-28T08:46:08.873Z,1.90
2018-09-28T08:47:14.272Z,2.00
2018-09-28T08:48:19.706Z,2.03
2018-09-28T08:49:25.173Z,1.53
2018-09-28T08:50:30.579Z,1.97
2018-09-28T08:51:36.161Z,1.47
2018-09-28T08:52:41.581Z,1.80
2018-09-28T08:53:47.178Z,2.20
2018-09-28T08:54:52.576Z,3.27
2018-09-28T08:55:58.060Z,2.07
2018-09-28T08:57:03.529Z,2.33
2018-09-28T08:58:08.974Z,2.20
2018-09-28T08:59:14.405Z,1.83
2018-09-28T09:00:19.956Z,1.90
2018-09-28T09:01:25.488Z,2.13
2018-09-28T09:02:31.099Z,1.80
2018-09-28T09:03:36.569Z,1.37
2018-09-28T09:04:42.032Z,2.10
2018-09-28T09:05:47.503Z,2.47
2018-09-28T09:06:52.921Z,2.00
2018-09-28T09:07:58.481Z,2.13
2018-09-28T09:09:04.494Z,2.00
2018-09-28T09:10:10.172Z,1.67
2018-09-28T09:11:15.618Z,2.53
2018-09-28T09:12:21.073Z,2.50
2018-09-28T09:13:26.496Z,1.90
2018-09-28T09:14:31.913Z,2.10
2018-09-28T09:15:37.437Z,2.00
2018-09-28T09:16:42.930Z,1.70
2018-09-28T09:17:48.418Z,1.40
2018-09-28T09:18:53.915Z,1.93
2018-09-28T09:19:59.367Z,1.70
2018-09-28T09:21:04.978Z,1.50
2018-09-28T09:22:10.405Z,2.10
2018-09-28T09:23:15.890Z,1.70
2018-09-28T09:24:21.475Z,2.63
2018-09-28T09:25:26.989Z,2.20
2018-09-28T09:26:32.365Z,1.73
2018-09-28T09:27:37.825Z,2.00
2018-09-28T09:28:43.316Z,2.20
2018-09-28T09:29:48.862Z,2.70
2018-09-28T09:30:54.425Z,1.93
2018-09-28T09:31:59.846Z,1.90
2018-09-28T09:33:05.276Z,2.40
2018-09-28T09:34:10.653Z,1.53
2018-09-28T09:35:16.065Z,2.53
2018-09-28T09:36:21.878Z,1.70
2018-09-28T09:37:27.437Z,1.80
2018-09-28T09:38:32.873Z,2.20
2018-09-28T09:39:38.322Z,1.90
2018-09-28T09:40:43.986Z,2.97
2018-09-28T09:41:49.598Z,1.53
2018-09-28T09:42:55.065Z,1.80
2018-09-28T09:44:00.544Z,2.10
2018-09-28T09:45:06.131Z,2.63
2018-09-28T09:46:11.697Z,1.70
2018-09-28T09:47:17.105Z,3.10
2018-09-28T09:48:22.551Z,2.53
2018-09-28T09:49:27.956Z,1.87
2018-09-28T09:50:33.425Z,2.37
2018-09-28T09:51:38.880Z,1.87
2018-09-28T09:52:44.313Z,1.90
2018-09-28T09:53:50.166Z,1.70
2018-09-28T09:54:55.720Z,1.87
2018-09-28T09:56:01.455Z,2.60
2018-09-28T09:57:07.166Z,1.73
2018-09-28T09:58:12.750Z,1.90
2018-09-28T09:59:18.523Z,2.00
2018-09-28T10:00:29.275Z,1.80
2018-09-28T10:01:39.850Z,2.17
2018-09-28T10:02:50.444Z,1.80
2018-09-28T10:03:56.050Z,2.10
2018-09-28T10:05:01.518Z,1.97
2018-09-28T10:06:07.560Z,1.33
2018-09-28T10:07:13.064Z,1.60
2018-09-28T10:08:18.548Z,1.93
2018-09-28T10:09:24.381Z,2.07
2018-09-28T10:10:29.885Z,1.97
2018-09-28T10:11:35.297Z,1.80
2018-09-28T10:12:40.722Z,1.50
2018-09-28T10:13:46.213Z,1.57
2018-09-28T10:14:51.945Z,2.00
2018-09-28T10:15:57.529Z,2.80
2018-09-28T10:17:03.150Z,2.20
2018-09-28T10:18:08.620Z,1.53
2018-09-28T10:19:14.154Z,1.90
2018-09-28T10:20:19.777Z,1.43
2018-09-28T10:21:25.227Z,1.70
2018-09-28T10:22:30.814Z,1.43
2018-09-28T10:23:36.236Z,1.60
2018-09-28T10:24:41.649Z,2.07
2018-09-28T10:25:47.077Z,2.47
2018-09-28T10:26:52.791Z,2.07
2018-09-28T10:27:58.374Z,2.10
2018-09-28T10:29:03.824Z,1.60
2018-09-28T10:30:09.326Z,1.60
2018-09-28T10:31:14.712Z,1.63
2018-09-28T10:32:20.174Z,2.10
2018-09-28T10:33:25.659Z,1.77
2018-09-28T10:34:31.148Z,2.60
2018-09-28T10:35:36.612Z,1.97
2018-09-28T10:36:42.174Z,1.80
2018-09-28T10:37:47.926Z,1.70
2018-09-28T10:38:53.357Z,2.43
2018-09-28T10:39:58.848Z,2.00
2018-09-28T10:41:04.319Z,1.80
2018-09-28T10:42:09.758Z,1.87
2018-09-28T10:43:15.205Z,2.00
2018-09-28T10:44:20.765Z,1.70
2018-09-28T10:45:26.326Z,1.60
2018-09-28T10:46:31.690Z,2.43
2018-09-28T10:47:37.093Z,2.43
2018-09-28T10:48:42.578Z,3.47
2018-09-28T10:49:48.204Z,2.30
2018-09-28T10:50:53.970Z,1.93
2018-09-28T10:51:59.579Z,1.70
2018-09-28T10:53:04.987Z,2.10
2018-09-28T10:54:10.372Z,1.83
2018-09-28T10:55:15.830Z,2.67
2018-09-28T10:56:21.362Z,1.40
2018-09-28T10:57:26.828Z,1.63
2018-09-28T10:58:32.242Z,2.03
2018-09-28T10:59:37.692Z,1.90
2018-09-28T11:00:43.152Z,2.00
2018-09-28T11:01:48.862Z,1.87
2018-09-28T11:02:54.368Z,1.50
2018-09-28T11:03:59.773Z,1.60
2018-09-28T11:05:05.309Z,2.30
2018-09-28T11:06:11.152Z,1.83
2018-09-28T11:07:17.225Z,2.40
2018-09-28T11:08:22.724Z,1.63
2018-09-28T11:09:28.121Z,1.70
2018-09-28T11:10:33.543Z,1.70
2018-09-28T11:11:38.984Z,1.63
2018-09-28T11:12:44.461Z,2.17
2018-09-28T11:13:49.977Z,1.47
2018-09-28T11:14:55.573Z,1.30
2018-09-28T11:16:01.044Z,1.00
2018-09-28T11:17:06.554Z,1.83
2018-09-28T11:18:12.312Z,1.47
2018-09-28T11:19:17.745Z,1.77
2018-09-28T11:20:23.520Z,1.33
2018-09-28T11:21:28.991Z,1.87
2018-09-28T11:22:34.481Z,1.50
2018-09-28T11:23:39.960Z,1.17
2018-09-28T11:24:45.381Z,1.60
2018-09-28T11:25:50.854Z,1.40
2018-09-28T11:26:56.348Z,1.40
2018-09-28T11:28:01.809Z,1.50
2018-09-28T11:29:07.377Z,1.83
2018-09-28T11:30:12.862Z,1.47
2018-09-28T11:31:18.402Z,1.57
2018-09-28T11:32:23.868Z,1.40
2018-09-28T11:33:29.385Z,2.23
2018-09-28T11:34:34.786Z,1.70
2018-09-28T11:35:40.193Z,1.43
2018-09-28T11:36:45.777Z,1.90
2018-09-28T11:37:51.640Z,1.80
2018-09-28T11:38:57.380Z,1.40
2018-09-28T11:40:02.841Z,2.30
2018-09-28T11:41:08.348Z,1.20
2018-09-28T11:42:13.813Z,2.03
2018-09-28T11:43:19.245Z,1.43
2018-09-28T11:44:24.814Z,1.97
2018-09-28T11:45:30.295Z,1.83
2018-09-28T11:46:35.648Z,2.10
2018-09-28T11:47:41.077Z,1.70
2018-09-28T11:48:46.497Z,1.63
2018-09-28T11:49:52.632Z,1.10
2018-09-28T11:50:58.108Z,1.70
2018-09-28T11:52:03.531Z,1.47
2018-09-28T11:53:09.091Z,1.50
2018-09-28T11:54:14.604Z,1.50
2018-09-28T11:55:20.173Z,1.30
2018-09-28T11:56:25.814Z,1.70
2018-09-28T11:57:31.304Z,1.20
2018-09-28T11:58:36.678Z,1.40
2018-09-28T11:59:42.485Z,1.60
2018-09-28T12:00:47.896Z,1.87
2018-09-28T12:01:53.564Z,1.00
2018-09-28T12:02:58.984Z,1.10
2018-09-28T12:04:04.397Z,2.20
2018-09-28T12:05:09.998Z,1.00
2018-09-28T12:06:15.440Z,1.20
2018-09-28T12:07:20.902Z,1.87
2018-09-28T12:08:26.397Z,2.00
2018-09-28T12:09:31.847Z,1.17
2018-09-28T12:10:37.336Z,1.73
2018-09-28T12:11:43.508Z,1.50
2018-09-28T12:12:48.953Z,2.10
2018-09-28T12:13:54.441Z,2.20
2018-09-28T12:14:59.867Z,1.50
2018-09-28T12:16:05.332Z,1.93
2018-09-28T12:17:10.848Z,1.80
2018-09-28T12:18:16.392Z,1.80
2018-09-28T12:19:21.810Z,1.83
2018-09-28T12:20:28.813Z,1.60
2018-09-28T12:21:34.480Z,1.50
2018-09-28T12:22:40.537Z,1.30
2018-09-28T12:23:46.033Z,1.83
2018-09-28T12:24:51.552Z,1.70
2018-09-28T12:25:57.033Z,1.50
2018-09-28T12:27:02.477Z,2.03
2018-09-28T12:28:07.907Z,1.30
2018-09-28T12:29:13.413Z,1.43
2018-09-28T12:30:18.884Z,1.97
2018-09-28T12:31:24.393Z,1.40
2018-09-28T12:32:29.976Z,1.43
2018-09-28T12:33:35.415Z,1.90
2018-09-28T12:34:40.831Z,1.40
2018-09-28T12:35:46.250Z,1.87
2018-09-28T12:36:51.812Z,2.60
2018-09-28T12:37:57.364Z,1.47
2018-09-28T12:39:03.052Z,1.07
2018-09-28T12:40:08.821Z,2.00
2018-09-28T12:41:14.224Z,2.13
2018-09-28T12:42:19.725Z,2.23
2018-09-28T12:43:25.148Z,1.27
2018-09-28T12:44:30.591Z,1.70
2018-09-28T12:45:36.059Z,1.20
2018-09-28T12:46:41.469Z,0.93
2018-09-28T12:47:46.853Z,1.00
2018-09-28T12:48:52.399Z,0.93
2018-09-28T12:49:57.772Z,1.33
2018-09-28T12:51:03.229Z,1.70
2018-09-28T12:52:08.741Z,1.10
2018-09-28T12:53:14.208Z,1.33
2018-09-28T12:54:19.936Z,1.80
2018-09-28T12:55:25.392Z,1.30
2018-09-28T12:56:31.017Z,1.03
2018-09-28T12:57:36.640Z,1.13
2018-09-28T12:58:42.145Z,1.40
2018-09-28T12:59:47.592Z,1.67
2018-09-28T13:00:53.423Z,1.50
2018-09-28T13:01:59.194Z,1.30
2018-09-28T13:03:04.926Z,1.13
2018-09-28T13:04:15.521Z,1.00
2018-09-28T13:05:21.529Z,1.40
2018-09-28T13:06:27.428Z,1.37
2018-09-28T13:07:33.033Z,1.20
2018-09-28T13:08:38.704Z,1.23
2018-09-28T13:09:44.215Z,2.37
2018-09-28T13:10:50.171Z,1.33
2018-09-28T13:11:55.821Z,1.40
2018-09-28T13:13:01.599Z,1.20
2018-09-28T13:14:07.413Z,1.27
2018-09-28T13:15:12.957Z,0.93
2018-09-28T13:16:18.769Z,0.87
2018-09-28T13:17:24.465Z,1.00
2018-09-28T13:18:30.096Z,1.20
2018-09-28T13:19:35.868Z,0.90
2018-09-28T13:20:41.672Z,0.93
2018-09-28T13:21:47.172Z,1.20
2018-09-28T13:22:52.913Z,1.00
2018-09-28T13:23:58.527Z,1.20
2018-09-28T13:25:04.082Z,1.40
2018-09-28T13:26:09.582Z,1.30
2018-09-28T13:27:15.016Z,1.77
2018-09-28T13:28:20.463Z,0.73
2018-09-28T13:29:26.089Z,1.07
2018-09-28T13:30:31.522Z,1.00
2018-09-28T13:31:37.372Z,1.13
2018-09-28T13:32:43.057Z,0.97
2018-09-28T13:33:49.028Z,1.47
2018-09-28T13:34:54.988Z,1.30
2018-09-28T13:36:00.454Z,1.03
2018-09-28T13:37:06.677Z,0.87
2018-09-28T13:38:12.292Z,1.17
2018-09-28T13:39:18.138Z,1.53
2018-09-28T13:40:23.778Z,1.03
2018-09-28T13:41:29.201Z,1.57
2018-09-28T13:42:34.701Z,1.00
2018-09-28T13:43:40.135Z,1.70
2018-09-28T13:44:46.078Z,1.00
2018-09-28T13:45:51.649Z,1.20
2018-09-28T13:46:57.317Z,1.70
2018-09-28T13:48:02.880Z,0.90
2018-09-28T13:49:08.417Z,1.50
2018-09-28T13:50:14.216Z,1.37
2018-09-28T13:51:19.825Z,1.30
2018-09-28T13:52:26.050Z,1.73
2018-09-28T13:53:31.582Z,1.90
2018-09-28T13:54:37.226Z,1.20
2018-09-28T13:55:42.832Z,1.50
2018-09-28T13:56:48.327Z,1.27
2018-09-28T13:57:53.802Z,1.67
2018-09-28T13:58:59.326Z,1.70
2018-09-28T14:00:05.524Z,1.10
2018-09-28T14:01:11.122Z,1.00
2018-09-28T14:02:17.103Z,1.70
2018-09-28T14:03:22.824Z,0.90
2018-09-28T14:04:28.501Z,2.20
2018-09-28T14:05:34.148Z,1.20
2018-09-28T14:06:39.812Z,1.43
2018-09-28T14:07:45.665Z,2.00
2018-09-28T14:08:51.644Z,1.40
2018-09-28T14:09:57.032Z,1.07
2018-09-28T14:11:02.730Z,1.27
2018-09-28T14:12:08.263Z,1.47
2018-09-28T14:13:14.197Z,1.07
2018-09-28T14:14:20.099Z,1.10
2018-09-28T14:15:25.504Z,1.10
2018-09-28T14:16:31.229Z,1.70
2018-09-28T14:17:37.121Z,1.20
2018-09-28T14:18:42.810Z,1.20
2018-09-28T14:19:48.666Z,1.10
2018-09-28T14:20:54.644Z,1.30
2018-09-28T14:22:00.416Z,1.80
2018-09-28T14:23:05.887Z,1.87
2018-09-28T14:24:11.544Z,1.30
2018-09-28T14:25:17.157Z,1.20